createdAt,value
2019-01-14T00:01:29.885Z,95463.69
2019-01-14T00:04:00.156Z,95464.13
2019-01-14T00:06:30.696Z,95467.09
2019-01-14T00:09:01.142Z,95479.86
2019-01-14T00:11:31.447Z,95479.84
2019-01-14T00:14:01.832Z,95478.96
2019-01-14T00:16:32.190Z,95473.02
2019-01-14T00:19:02.658Z,95484.97
2019-01-14T00:21:33.075Z,95485.41
2019-01-14T00:24:03.358Z,95481.53
2019-01-14T00:26:34.034Z,95488.34
2019-01-14T00:29:04.804Z,95490.03
2019-01-14T00:31:35.526Z,95493.48
2019-01-14T00:34:06.020Z,95495.20
2019-01-14T00:36:37.032Z,95498.14
2019-01-14T00:39:08.716Z,95490.89
2019-01-14T00:41:39.162Z,95487.03
2019-01-14T00:44:09.605Z,95490.84
2019-01-14T00:46:39.898Z,95502.77
2019-01-14T00:49:10.177Z,95497.25
2019-01-14T00:51:40.452Z,95521.96
2019-01-14T00:54:10.794Z,95516.47
2019-01-14T00:56:41.200Z,95512.69
2019-01-14T00:59:12.135Z,95511.87
2019-01-14T01:01:42.668Z,95512.72
2019-01-14T01:04:12.999Z,95530.17
2019-01-14T01:06:43.324Z,95516.16
2019-01-14T01:09:13.570Z,95522.09
2019-01-14T01:11:43.848Z,95524.23
2019-01-14T01:14:14.172Z,95522.06
2019-01-14T01:16:44.821Z,95538.64
2019-01-14T01:19:15.093Z,95526.25
2019-01-14T01:21:45.537Z,95537.30
2019-01-14T01:24:15.827Z,95544.52
2019-01-14T01:26:46.357Z,95551.34
2019-01-14T01:29:16.994Z,95555.16
2019-01-14T01:31:47.443Z,95547.95
2019-01-14T01:34:17.718Z,95557.77
2019-01-14T01:36:48.244Z,95559.88
2019-01-14T01:39:18.555Z,95565.02
2019-01-14T01:41:48.811Z,95572.72
2019-01-14T01:44:19.387Z,95569.28
2019-01-14T01:46:50.014Z,95572.72
2019-01-14T01:49:20.542Z,95581.20
2019-01-14T01:51:50.769Z,95581.28
2019-01-14T01:54:21.190Z,95588.09
2019-01-14T01:56:51.776Z,95593.58
2019-01-14T01:59:22.184Z,95591.03
2019-01-14T02:01:52.601Z,95606.35
2019-01-14T02:04:22.967Z,95604.63
2019-01-14T02:06:53.730Z,95616.13
2019-01-14T02:09:24.012Z,95612.69
2019-01-14T02:11:54.689Z,95613.55
2019-01-14T02:14:25.471Z,95617.79
2019-01-14T02:16:56.138Z,95623.78
2019-01-14T02:19:26.458Z,95622.09
2019-01-14T02:21:56.809Z,95628.92
2019-01-14T02:24:27.024Z,95622.56
2019-01-14T02:26:57.285Z,95628.03
2019-01-14T02:29:27.545Z,95639.52
2019-01-14T02:31:57.759Z,95641.19
2019-01-14T02:34:28.100Z,95656.13
2019-01-14T02:36:58.567Z,95648.46
2019-01-14T02:39:28.955Z,95655.29
2019-01-14T02:41:59.326Z,95654.42
2019-01-14T02:44:29.567Z,95662.50
2019-01-14T02:46:59.845Z,95659.48
2019-01-14T02:49:30.224Z,95668.83
2019-01-14T02:52:00.539Z,95666.69
2019-01-14T02:54:30.732Z,95679.07
2019-01-14T02:57:01.332Z,95673.55
2019-01-14T02:59:31.623Z,95676.08
2019-01-14T03:02:02.212Z,95679.91
2019-01-14T03:04:35.437Z,95687.08
2019-01-14T03:07:06.266Z,95679.91
2019-01-14T03:09:36.579Z,95682.88
2019-01-14T03:12:06.967Z,95678.27
2019-01-14T03:14:37.288Z,95668.00
2019-01-14T03:17:07.750Z,95679.91
2019-01-14T03:19:38.281Z,95676.94
2019-01-14T03:22:08.967Z,95694.39
2019-01-14T03:24:39.343Z,95696.05
2019-01-14T03:27:09.609Z,95701.61
2019-01-14T03:29:40.401Z,95699.05
2019-01-14T03:32:11.472Z,95707.54
2019-01-14T03:34:41.867Z,95697.33
2019-01-14T03:37:12.286Z,95698.61
2019-01-14T03:39:42.666Z,95700.30
2019-01-14T03:42:13.321Z,95696.91
2019-01-14T03:44:44.056Z,95710.55
2019-01-14T03:47:14.344Z,95706.27
2019-01-14T03:49:45.085Z,95714.27
2019-01-14T03:52:15.943Z,95721.84
2019-01-14T03:54:46.463Z,95730.41
2019-01-14T03:57:16.869Z,95730.83
2019-01-14T03:59:47.426Z,95732.09
2019-01-14T04:02:17.885Z,95733.83
2019-01-14T04:04:48.188Z,95736.79
2019-01-14T04:07:18.869Z,95731.65
2019-01-14T04:09:49.163Z,95731.23
2019-01-14T04:12:19.472Z,95738.92
2019-01-14T04:14:49.787Z,95741.89
2019-01-14T04:17:20.447Z,95749.17
2019-01-14T04:19:50.751Z,95758.90
2019-01-14T04:22:20.948Z,95757.17
2019-01-14T04:24:51.206Z,95768.25
2019-01-14T04:27:21.397Z,95770.02
2019-01-14T04:29:51.643Z,95772.16
2019-01-14T04:32:21.785Z,95765.28
2019-01-14T04:34:52.079Z,95773.80
2019-01-14T04:37:22.387Z,95771.70
2019-01-14T04:39:52.960Z,95775.98
2019-01-14T04:42:23.350Z,95781.13
2019-01-14T04:44:53.690Z,95773.92
2019-01-14T04:47:23.950Z,95782.45
2019-01-14T04:49:54.401Z,95787.59
2019-01-14T04:52:24.661Z,95780.80
2019-01-14T04:54:55.262Z,95785.91
2019-01-14T04:57:25.543Z,95793.56
2019-01-14T04:59:55.860Z,95791.02
2019-01-14T05:02:26.253Z,95800.77
2019-01-14T05:04:56.571Z,95801.19
2019-01-14T05:07:29.635Z,95807.57
2019-01-14T05:09:59.371Z,95822.06
2019-01-14T05:12:29.711Z,95816.05
2019-01-14T05:15:00.172Z,95825.41
2019-01-14T05:17:30.556Z,95834.83
2019-01-14T05:20:00.942Z,95839.48
2019-01-14T05:22:31.391Z,95832.31
2019-01-14T05:25:01.989Z,95847.60
2019-01-14T05:27:32.275Z,95849.70
2019-01-14T05:30:02.805Z,95853.16
2019-01-14T05:32:33.088Z,95864.23
2019-01-14T05:35:03.365Z,95864.61
2019-01-14T05:37:37.535Z,95869.31
2019-01-14T05:40:11.159Z,95891.88
2019-01-14T05:42:41.289Z,95902.45
2019-01-14T05:45:12.315Z,95903.31
2019-01-14T05:47:42.524Z,95894.28
2019-01-14T05:50:13.987Z,95895.88
2019-01-14T05:52:44.606Z,95896.64
2019-01-14T05:55:15.308Z,95898.73
2019-01-14T05:57:46.201Z,95907.62
2019-01-14T06:00:34.169Z,95914.91
2019-01-14T06:03:04.670Z,95921.70
2019-01-14T06:05:35.087Z,95913.13
2019-01-14T06:08:05.473Z,95916.94
2019-01-14T06:10:35.749Z,95914.34
2019-01-14T06:13:06.107Z,95914.69
2019-01-14T06:15:37.044Z,95911.73
2019-01-14T06:18:07.552Z,95918.92
2019-01-14T06:20:37.887Z,95914.22
2019-01-14T06:23:08.516Z,95920.55
2019-01-14T06:25:38.968Z,95921.89
2019-01-14T06:28:09.510Z,95932.91
2019-01-14T06:30:40.178Z,95927.31
2019-01-14T06:33:10.568Z,95928.59
2019-01-14T06:35:41.032Z,95941.77
2019-01-14T06:38:11.742Z,95938.75
2019-01-14T06:40:42.113Z,95948.54
2019-01-14T06:43:12.537Z,95947.22
2019-01-14T06:45:42.943Z,95951.05
2019-01-14T06:48:13.291Z,95962.11
2019-01-14T06:50:43.467Z,95968.03
2019-01-14T06:53:14.245Z,95975.66
2019-01-14T06:55:45.078Z,95981.17
2019-01-14T06:58:15.462Z,95982.11
2019-01-14T07:00:45.950Z,95991.03
2019-01-14T07:03:16.660Z,95996.54
2019-01-14T07:05:47.187Z,95998.68
2019-01-14T07:08:17.462Z,95998.64
2019-01-14T07:10:47.859Z,96008.36
2019-01-14T07:13:18.095Z,96013.88
2019-01-14T07:15:48.423Z,96014.28
2019-01-14T07:18:18.645Z,96032.53
2019-01-14T07:20:49.067Z,96032.98
2019-01-14T07:23:19.332Z,96034.67
2019-01-14T07:25:49.607Z,96046.56
2019-01-14T07:28:19.971Z,96040.92
2019-01-14T07:30:50.319Z,96054.07
2019-01-14T07:33:20.998Z,96054.80
2019-01-14T07:35:51.589Z,96061.56
2019-01-14T07:38:21.923Z,96057.66
2019-01-14T07:40:52.335Z,96072.14
2019-01-14T07:43:22.645Z,96079.72
2019-01-14T07:45:53.115Z,96091.13
2019-01-14T07:48:23.834Z,96107.83
2019-01-14T07:50:54.765Z,96121.64
2019-01-14T07:53:25.363Z,96120.23
2019-01-14T07:55:55.660Z,96116.44
2019-01-14T07:58:26.214Z,96125.88
2019-01-14T08:00:56.446Z,96124.69
2019-01-14T08:03:27.166Z,96133.59
2019-01-14T08:05:57.484Z,96137.52
2019-01-14T08:08:28.171Z,96153.97
2019-01-14T08:10:58.554Z,96159.17
2019-01-14T08:13:28.797Z,96165.50
2019-01-14T08:15:59.026Z,96163.23
2019-01-14T08:18:29.216Z,96177.98
2019-01-14T08:20:59.531Z,96182.33
2019-01-14T08:23:29.913Z,96178.89
2019-01-14T08:26:00.144Z,96178.00
2019-01-14T08:28:30.770Z,96187.77
2019-01-14T08:31:01.162Z,96184.39
2019-01-14T08:33:31.450Z,96190.75
2019-01-14T08:36:01.690Z,96196.76
2019-01-14T08:38:31.963Z,96198.68
2019-01-14T08:41:02.715Z,96189.02
2019-01-14T08:43:35.844Z,96183.66
2019-01-14T08:46:07.465Z,96202.53
2019-01-14T08:48:37.839Z,96201.66
2019-01-14T08:51:08.310Z,96203.50
2019-01-14T08:53:38.629Z,96204.55
2019-01-14T08:56:09.084Z,96205.98
2019-01-14T08:58:39.377Z,96203.19
2019-01-14T09:01:09.796Z,96202.98
2019-01-14T09:03:40.186Z,96205.60
2019-01-14T09:06:10.563Z,96203.46
2019-01-14T09:08:40.825Z,96204.47
2019-01-14T09:11:11.231Z,96195.23
2019-01-14T09:13:41.924Z,96205.05
2019-01-14T09:16:12.436Z,96214.02
2019-01-14T09:18:42.845Z,96215.52
2019-01-14T09:21:13.371Z,96226.28
2019-01-14T09:23:43.448Z,96232.00
2019-01-14T09:26:13.706Z,96227.36
2019-01-14T09:28:44.006Z,96230.61
2019-01-14T09:31:14.630Z,96238.52
2019-01-14T09:33:45.174Z,96235.08
2019-01-14T09:36:15.564Z,96238.17
2019-01-14T09:38:46.130Z,96236.95
2019-01-14T09:41:16.728Z,96247.94
2019-01-14T09:43:46.912Z,96245.81
2019-01-14T09:46:17.501Z,96242.53
2019-01-14T09:48:47.678Z,96241.77
2019-01-14T09:51:18.253Z,96243.13
2019-01-14T09:53:48.459Z,96239.23
2019-01-14T09:56:18.620Z,96242.63
2019-01-14T09:58:48.888Z,96241.78
2019-01-14T10:01:19.345Z,96254.19
2019-01-14T10:03:49.601Z,96246.47
2019-01-14T10:06:19.849Z,96245.78
2019-01-14T10:08:49.983Z,96246.19
2019-01-14T10:11:20.404Z,96248.27
2019-01-14T10:13:50.662Z,96241.49
2019-01-14T10:16:20.772Z,96229.14
2019-01-14T10:18:51.194Z,96230.99
2019-01-14T10:21:21.373Z,96208.66
2019-01-14T10:23:51.907Z,96205.54
2019-01-14T10:26:22.081Z,96198.95
2019-01-14T10:28:52.205Z,96193.69
2019-01-14T10:31:22.404Z,96205.61
2019-01-14T10:33:52.521Z,96203.98
2019-01-14T10:36:23.122Z,96207.00
2019-01-14T10:38:53.467Z,96208.25
2019-01-14T10:41:24.128Z,96207.47
2019-01-14T10:43:54.331Z,96211.34
2019-01-14T10:46:24.689Z,96214.28
2019-01-14T10:48:55.470Z,96210.35
2019-01-14T10:51:25.624Z,96215.77
2019-01-14T10:53:55.742Z,96214.10
2019-01-14T10:56:25.897Z,96213.80
2019-01-14T10:58:56.132Z,96220.72
2019-01-14T11:01:26.458Z,96216.70
2019-01-14T11:03:57.217Z,96214.48
2019-01-14T11:06:27.409Z,96220.84
2019-01-14T11:09:05.396Z,96223.68
2019-01-14T11:11:29.445Z,96215.09
2019-01-14T11:14:00.038Z,96222.13
2019-01-14T11:16:30.143Z,96218.16
2019-01-14T11:19:00.348Z,96212.27
2019-01-14T11:21:30.511Z,96212.44
2019-01-14T11:24:00.617Z,96214.64
2019-01-14T11:26:30.896Z,96217.27
2019-01-14T11:29:01.082Z,96221.91
2019-01-14T11:31:31.254Z,96218.50
2019-01-14T11:34:01.516Z,96212.48
2019-01-14T11:36:32.084Z,96201.49
2019-01-14T11:39:05.207Z,96206.86
2019-01-14T11:41:35.879Z,96214.34
2019-01-14T11:44:06.260Z,96207.48
2019-01-14T11:46:36.839Z,96204.78
2019-01-14T11:49:08.790Z,96207.00
2019-01-14T11:51:39.039Z,96203.98
2019-01-14T11:54:09.220Z,96203.88
2019-01-14T11:56:39.706Z,96212.27
2019-01-14T11:59:09.968Z,96213.05
2019-01-14T12:01:40.301Z,96206.76
2019-01-14T12:04:10.546Z,96216.72
2019-01-14T12:06:40.758Z,96210.92
2019-01-14T12:09:13.013Z,96203.91
2019-01-14T12:11:43.274Z,96206.34
2019-01-14T12:14:13.545Z,96210.93
2019-01-14T12:16:43.736Z,96210.95
2019-01-14T12:19:13.937Z,96204.95
2019-01-14T12:21:44.550Z,96204.42
2019-01-14T12:24:14.776Z,96208.92
2019-01-14T12:26:45.104Z,96213.92
2019-01-14T12:29:15.277Z,96220.23
2019-01-14T12:31:45.893Z,96219.73
2019-01-14T12:34:16.183Z,96216.27
2019-01-14T12:36:46.398Z,96219.61
2019-01-14T12:39:19.645Z,96247.17
2019-01-14T12:41:51.217Z,96266.42
2019-01-14T12:44:20.503Z,96275.55
2019-01-14T12:46:51.430Z,96263.94
2019-01-14T12:49:21.682Z,96256.73
2019-01-14T12:51:52.283Z,96262.73
2019-01-14T12:54:22.400Z,96269.16
2019-01-14T12:56:52.863Z,96277.45
2019-01-14T12:59:23.016Z,96275.14
2019-01-14T13:01:53.134Z,96276.70
2019-01-14T13:04:23.306Z,96276.64
2019-01-14T13:06:53.652Z,96272.88
2019-01-14T13:09:26.867Z,96282.86
2019-01-14T13:11:56.260Z,96291.04
2019-01-14T13:14:26.646Z,96275.66
2019-01-14T13:16:56.913Z,96277.89
2019-01-14T13:19:27.411Z,96276.88
2019-01-14T13:21:58.018Z,96278.17
2019-01-14T13:24:28.262Z,96264.22
2019-01-14T13:26:58.859Z,96274.97
2019-01-14T13:29:28.972Z,96276.65
2019-01-14T13:31:59.713Z,96284.13
2019-01-14T13:34:29.864Z,96282.52
2019-01-14T13:37:00.583Z,96291.39
2019-01-14T13:39:34.152Z,96286.80
2019-01-14T13:42:03.361Z,96284.59
2019-01-14T13:44:33.621Z,96286.92
2019-01-14T13:47:04.236Z,96282.19
2019-01-14T13:49:34.447Z,96293.04
2019-01-14T13:52:04.760Z,96277.36
2019-01-14T13:54:35.033Z,96273.34
2019-01-14T13:57:05.295Z,96275.95
2019-01-14T13:59:35.452Z,96292.53
2019-01-14T14:02:06.491Z,96303.44
2019-01-14T14:04:36.694Z,96293.76
2019-01-14T14:07:06.953Z,96309.66
2019-01-14T14:09:41.168Z,96318.52
2019-01-14T14:12:09.215Z,96326.54
2019-01-14T14:14:39.728Z,96320.42
2019-01-14T14:17:10.038Z,96329.94
2019-01-14T14:19:40.282Z,96337.02
2019-01-14T14:22:11.785Z,96339.40
2019-01-14T14:24:42.416Z,96347.42
2019-01-14T14:27:12.693Z,96362.31
2019-01-14T14:29:42.789Z,96357.16
2019-01-14T14:32:13.530Z,96365.41
2019-01-14T14:34:43.655Z,96366.36
2019-01-14T14:37:13.980Z,96364.55
2019-01-14T14:39:48.493Z,96365.73
2019-01-14T14:42:16.741Z,96363.61
2019-01-14T14:44:47.391Z,96370.23
2019-01-14T14:47:17.714Z,96368.12
2019-01-14T14:49:47.921Z,96363.30
2019-01-14T14:52:18.177Z,96376.88
2019-01-14T14:54:48.679Z,96383.30
2019-01-14T14:57:18.936Z,96378.14
2019-01-14T14:59:49.377Z,96375.13
2019-01-14T15:02:19.921Z,96376.33
2019-01-14T15:04:50.099Z,96384.86
2019-01-14T15:07:20.351Z,96384.70
2019-01-14T15:09:55.838Z,96386.88
2019-01-14T15:12:22.444Z,96393.02
2019-01-14T15:14:52.559Z,96402.73
2019-01-14T15:17:22.815Z,96410.24
2019-01-14T15:19:53.176Z,96412.05
2019-01-14T15:22:22.869Z,96416.78
2019-01-14T15:24:52.696Z,96430.19
2019-01-14T15:27:22.884Z,96435.04
2019-01-14T15:29:53.240Z,96443.45
2019-01-14T15:32:23.534Z,96450.45
2019-01-14T15:34:53.875Z,96461.78
2019-01-14T15:37:24.577Z,96467.00
2019-01-14T15:39:54.379Z,96469.45
2019-01-14T15:42:24.823Z,96485.47
2019-01-14T15:44:55.784Z,96487.42
2019-01-14T15:47:25.439Z,96491.89
2019-01-14T15:49:55.234Z,96503.67
2019-01-14T15:52:25.548Z,96508.17
2019-01-14T15:54:55.278Z,96507.30
2019-01-14T15:57:25.138Z,96507.38
2019-01-14T15:59:55.475Z,96506.27
2019-01-14T16:02:25.811Z,96507.41
2019-01-14T16:04:56.440Z,96516.03
2019-01-14T16:07:26.194Z,96520.31
2019-01-14T16:09:56.573Z,96529.98
2019-01-14T16:12:26.550Z,96536.20
2019-01-14T16:14:56.294Z,96545.98
2019-01-14T16:17:27.131Z,96552.09
2019-01-14T16:19:57.542Z,96558.81
2019-01-14T16:22:27.831Z,96566.44
2019-01-14T16:24:58.131Z,96576.61
2019-01-14T16:27:28.469Z,96569.52
2019-01-14T16:30:01.069Z,96572.64
2019-01-14T16:32:30.864Z,96581.88
2019-01-14T16:35:00.640Z,96588.30
2019-01-14T16:37:30.411Z,96589.86
2019-01-14T16:40:00.168Z,96593.60
2019-01-14T16:42:30.825Z,96594.87
2019-01-14T16:45:00.666Z,96605.05
2019-01-14T16:47:30.550Z,96607.88
2019-01-14T16:50:00.414Z,96626.08
2019-01-14T16:52:30.340Z,96622.27
2019-01-14T16:56:00.266Z,96636.61
2019-01-14T16:58:31.366Z,96642.67
2019-01-14T17:01:01.432Z,96637.63
2019-01-14T17:03:31.271Z,96650.34
2019-01-14T17:06:01.621Z,96647.84
2019-01-14T17:08:31.332Z,96647.08
2019-01-14T17:11:01.833Z,96655.62
2019-01-14T17:13:32.195Z,96661.28
2019-01-14T17:16:02.035Z,96665.39
2019-01-14T17:18:31.853Z,96658.52
2019-01-14T17:21:01.721Z,96670.69
2019-01-14T17:23:32.023Z,96680.45
2019-01-14T17:26:02.185Z,96678.20
2019-01-14T17:28:31.988Z,96682.84
2019-01-14T17:31:01.729Z,96676.02
2019-01-14T17:33:31.900Z,96686.64
2019-01-14T17:36:01.690Z,96693.27
2019-01-14T17:38:32.060Z,96691.27
2019-01-14T17:41:01.761Z,96693.02
2019-01-14T17:43:32.182Z,96701.19
2019-01-14T17:46:02.254Z,96693.59
2019-01-14T17:48:32.042Z,96701.19
2019-01-14T17:51:01.858Z,96716.81
2019-01-14T17:53:32.876Z,96713.56
2019-01-14T17:56:02.641Z,96721.45
2019-01-14T17:58:32.500Z,96727.48
2019-01-14T18:01:02.906Z,96744.48
2019-01-14T18:03:32.642Z,96748.15
2019-01-14T18:06:03.514Z,96757.45
2019-01-14T18:08:33.875Z,96759.39
2019-01-14T18:11:03.695Z,96762.89
2019-01-14T18:13:33.855Z,96766.45
2019-01-14T18:16:04.250Z,96772.21
2019-01-14T18:18:34.039Z,96773.14
2019-01-14T18:21:06.672Z,96774.81
2019-01-14T18:23:36.045Z,96779.18
2019-01-14T18:26:05.910Z,96792.66
2019-01-14T18:28:36.480Z,96793.86
2019-01-14T18:31:06.746Z,96788.18
2019-01-14T18:33:36.414Z,96788.96
2019-01-14T18:36:06.298Z,96794.19
2019-01-14T18:38:36.673Z,96792.00
2019-01-14T18:42:36.088Z,96794.62
2019-01-14T18:45:07.813Z,96803.52
2019-01-14T18:47:37.626Z,96794.98
2019-01-14T18:50:09.351Z,96806.87
2019-01-14T18:52:39.165Z,96813.38
2019-01-14T18:55:09.111Z,96815.53
2019-01-14T18:57:39.021Z,96817.87
2019-01-14T19:00:12.557Z,96824.23
2019-01-14T19:02:43.128Z,96827.57
2019-01-14T19:05:13.098Z,96823.75
2019-01-14T19:07:43.236Z,96835.37
2019-01-14T19:10:13.265Z,96844.63
2019-01-14T19:12:43.224Z,96857.67
2019-01-14T19:15:15.191Z,96862.28
2019-01-14T19:17:45.635Z,96863.63
2019-01-14T19:20:28.546Z,96870.03
2019-01-14T19:22:58.283Z,96869.28
2019-01-14T19:25:28.850Z,96874.21
2019-01-14T19:27:58.698Z,96880.94
2019-01-14T19:30:28.488Z,96880.45
2019-01-14T19:32:58.261Z,96887.89
2019-01-14T19:35:28.094Z,96884.23
2019-01-14T19:37:57.908Z,96895.52
2019-01-14T19:40:28.787Z,96900.50
2019-01-14T19:42:58.657Z,96906.09
2019-01-14T19:45:28.541Z,96913.89
2019-01-14T19:47:58.368Z,96909.20
2019-01-14T19:50:28.163Z,96916.84
2019-01-14T19:52:58.033Z,96920.49
2019-01-14T19:55:27.889Z,96931.66
2019-01-14T19:57:58.291Z,96935.41
2019-01-14T20:00:31.115Z,96946.02
2019-01-14T20:03:00.924Z,96953.65
2019-01-14T20:05:30.722Z,96955.28
2019-01-14T20:08:01.215Z,96964.27
2019-01-14T20:10:32.291Z,96976.84
2019-01-14T20:13:06.013Z,96980.55
2019-01-14T20:15:39.173Z,96977.52
2019-01-14T20:18:18.624Z,96977.42
2019-01-14T20:20:53.810Z,96975.11
2019-01-14T20:23:24.884Z,96973.36
2019-01-14T20:25:59.089Z,96969.09
2019-01-14T20:28:30.823Z,96961.55
2019-01-14T20:31:04.198Z,96955.28
2019-01-14T20:33:38.171Z,96971.36
2019-01-14T20:36:08.545Z,96975.52
2019-01-14T20:38:38.381Z,96976.61
2019-01-14T20:41:08.720Z,96965.94
2019-01-14T20:43:39.072Z,96979.41
2019-01-14T20:46:08.917Z,96977.96
2019-01-14T20:48:38.781Z,96980.50
2019-01-14T20:51:08.922Z,96975.98
2019-01-14T20:53:39.219Z,96981.41
2019-01-14T20:56:09.061Z,96986.14
2019-01-14T20:58:39.367Z,96984.52
2019-01-14T21:01:09.241Z,96983.13
2019-01-14T21:03:39.085Z,96986.69
2019-01-14T21:06:08.956Z,96978.94
2019-01-14T21:08:39.284Z,96991.64
2019-01-14T21:11:09.939Z,96998.33
2019-01-14T21:13:40.064Z,97000.88
2019-01-14T21:16:10.208Z,97007.17
2019-01-14T21:18:39.927Z,97003.56
2019-01-14T21:21:09.836Z,97006.98
2019-01-14T21:23:39.578Z,97015.39
2019-01-14T21:26:09.425Z,97021.39
2019-01-14T21:28:39.271Z,97023.40
2019-01-14T21:31:09.100Z,97025.41
2019-01-14T21:33:38.880Z,97036.09
2019-01-14T21:36:08.770Z,97030.97
2019-01-14T21:38:38.574Z,97041.33
2019-01-14T21:41:08.914Z,97038.10
2019-01-14T21:43:38.972Z,97046.61
2019-01-14T21:46:08.875Z,97048.30
2019-01-14T21:48:39.259Z,97040.88
2019-01-14T21:51:09.029Z,97054.50
2019-01-14T21:53:39.326Z,97056.91
2019-01-14T21:56:09.235Z,97063.30
2019-01-14T21:58:40.083Z,97065.79
2019-01-14T22:01:09.924Z,97070.87
2019-01-14T22:03:39.697Z,97078.20
2019-01-14T22:06:09.558Z,97066.55
2019-01-14T22:08:39.198Z,97069.42
2019-01-14T22:11:08.957Z,97074.56
2019-01-14T22:13:38.821Z,97078.77
2019-01-14T22:16:08.557Z,97075.69
2019-01-14T22:18:38.281Z,97070.36
2019-01-14T22:21:08.858Z,97069.45
2019-01-14T22:23:38.546Z,97082.34
2019-01-14T22:26:08.394Z,97076.77
2019-01-14T22:28:38.241Z,97085.71
2019-01-14T22:31:08.246Z,97078.00
2019-01-14T22:33:38.358Z,97078.14
2019-01-14T22:36:08.206Z,97076.14
2019-01-14T22:38:38.050Z,97085.37
2019-01-14T22:41:07.789Z,97082.83
2019-01-14T22:43:37.673Z,97096.20
2019-01-14T22:46:08.089Z,97087.70
2019-01-14T22:48:37.861Z,97094.54
2019-01-14T22:51:08.150Z,97102.55
2019-01-14T22:53:38.034Z,97096.20
2019-01-14T22:56:08.424Z,97114.17
2019-01-14T22:58:38.221Z,97103.28
2019-01-14T23:01:45.302Z,97107.69
2019-01-14T23:04:15.118Z,97109.30
2019-01-14T23:06:45.521Z,97118.44
2019-01-14T23:09:15.834Z,97100.37
2019-01-14T23:11:52.849Z,97107.39
2019-01-14T23:14:26.270Z,97110.28
2019-01-14T23:16:56.678Z,97113.36
2019-01-14T23:19:27.020Z,97120.09
2019-01-14T23:21:56.733Z,97117.70
2019-01-14T23:24:27.869Z,97125.43
2019-01-14T23:26:59.040Z,97127.09
2019-01-14T23:29:29.534Z,97124.55
2019-01-14T23:32:00.638Z,97118.63
2019-01-14T23:34:31.212Z,97123.57
2019-01-14T23:37:01.612Z,97128.99
2019-01-14T23:39:31.449Z,97134.13
2019-01-14T23:42:01.268Z,97134.52
2019-01-14T23:44:31.073Z,97128.84
2019-01-14T23:47:00.946Z,97138.33
2019-01-14T23:49:31.073Z,97129.13
2019-01-14T23:52:01.492Z,97134.80
2019-01-14T23:54:36.996Z,97141.69
2019-01-14T23:57:03.067Z,97141.01
2019-01-14T23:59:33.437Z,97141.01
